createdAt,value
2018-07-06T00:02:12.846Z,56.74
2018-07-06T00:04:51.747Z,56.16
2018-07-06T00:07:30.566Z,55.47
2018-07-06T00:10:09.495Z,55.64
2018-07-06T00:12:48.333Z,55.57
2018-07-06T00:15:27.252Z,55.32
2018-07-06T00:18:06.154Z,55.41
2018-07-06T00:20:45.041Z,55.09
2018-07-06T00:23:23.857Z,55.79
2018-07-06T00:26:02.624Z,55.54
2018-07-06T00:28:41.445Z,55.54
2018-07-06T00:31:20.381Z,55.69
2018-07-06T00:33:59.161Z,56.00
2018-07-06T00:36:38.320Z,56.73
2018-07-06T00:39:17.049Z,56.33
2018-07-06T00:41:56.239Z,55.97
2018-07-06T00:44:35.066Z,57.00
2018-07-06T00:47:14.287Z,56.82
2018-07-06T00:49:53.145Z,57.07
2018-07-06T00:52:32.209Z,58.86
2018-07-06T00:55:11.106Z,58.66
2018-07-06T00:57:52.116Z,58.89
2018-07-06T01:00:30.894Z,58.98
2018-07-06T01:03:10.697Z,58.92
2018-07-06T01:05:49.588Z,59.30
2018-07-06T01:08:29.741Z,58.69
2018-07-06T01:11:09.005Z,59.11
2018-07-06T01:13:48.103Z,58.83
2018-07-06T01:16:26.897Z,58.30
2018-07-06T01:19:06.070Z,57.68
2018-07-06T01:21:44.837Z,57.37
2018-07-06T01:24:24.341Z,57.13
2018-07-06T01:27:03.237Z,57.25
2018-07-06T01:29:42.209Z,57.46
2018-07-06T01:32:21.062Z,57.39
2018-07-06T01:35:00.126Z,57.12
2018-07-06T01:37:38.861Z,56.81
2018-07-06T01:40:17.871Z,56.81
2018-07-06T01:42:56.741Z,56.57
2018-07-06T01:45:35.754Z,56.03
2018-07-06T01:48:14.593Z,55.89
2018-07-06T01:50:53.684Z,55.71
2018-07-06T01:53:32.622Z,56.07
2018-07-06T01:56:11.370Z,55.79
2018-07-06T01:58:50.243Z,56.33
2018-07-06T02:01:29.154Z,55.86
2018-07-06T02:04:07.981Z,56.03
2018-07-06T02:06:47.070Z,55.96
2018-07-06T02:09:25.789Z,56.44
2018-07-06T02:12:04.807Z,56.61
2018-07-06T02:14:43.645Z,56.50
2018-07-06T02:17:22.465Z,56.68
2018-07-06T02:20:01.398Z,56.52
2018-07-06T02:22:40.293Z,56.30
2018-07-06T02:25:19.157Z,57.02
2018-07-06T02:27:58.061Z,57.46
2018-07-06T02:30:39.206Z,57.17
2018-07-06T02:33:18.137Z,56.75
2018-07-06T02:35:56.984Z,56.27
2018-07-06T02:38:35.762Z,56.74
2018-07-06T02:41:14.645Z,55.94
2018-07-06T02:43:53.624Z,55.57
2018-07-06T02:46:32.378Z,55.91
2018-07-06T02:49:11.265Z,55.67
2018-07-06T02:51:50.160Z,55.63
2018-07-06T02:54:28.974Z,55.55
2018-07-06T02:57:07.901Z,55.48
2018-07-06T02:59:46.838Z,54.96
2018-07-06T03:02:25.766Z,54.74
2018-07-06T03:05:04.654Z,54.20
2018-07-06T03:07:43.474Z,54.42
2018-07-06T03:10:22.416Z,54.72
2018-07-06T03:13:01.189Z,54.76
2018-07-06T03:15:40.107Z,54.92
2018-07-06T03:18:18.913Z,54.80
2018-07-06T03:20:57.890Z,54.66
2018-07-06T03:23:36.698Z,54.63
2018-07-06T03:26:15.587Z,54.49
2018-07-06T03:28:54.454Z,54.00
2018-07-06T03:31:33.253Z,54.39
2018-07-06T03:34:12.200Z,54.39
2018-07-06T03:36:51.114Z,54.10
2018-07-06T03:39:29.982Z,54.31
2018-07-06T03:42:08.879Z,54.37
2018-07-06T03:44:47.837Z,54.36
2018-07-06T03:47:26.773Z,54.24
2018-07-06T03:50:05.733Z,54.35
2018-07-06T03:52:44.740Z,54.80
2018-07-06T03:55:23.777Z,54.68
2018-07-06T03:58:03.989Z,54.40
2018-07-06T04:00:42.906Z,53.38
2018-07-06T04:03:21.833Z,52.41
2018-07-06T04:06:00.928Z,51.65
2018-07-06T04:08:39.785Z,50.81
2018-07-06T04:11:18.667Z,50.39
2018-07-06T04:13:57.969Z,50.06
2018-07-06T04:16:36.917Z,49.41
2018-07-06T04:19:15.609Z,49.86
2018-07-06T04:21:54.765Z,48.99
2018-07-06T04:24:33.621Z,48.78
2018-07-06T04:27:13.131Z,48.34
2018-07-06T04:29:51.873Z,47.71
2018-07-06T04:32:31.265Z,48.02
2018-07-06T04:35:10.409Z,47.52
2018-07-06T04:37:49.372Z,47.13
2018-07-06T04:40:28.180Z,46.57
2018-07-06T04:43:07.051Z,46.39
2018-07-06T04:45:46.513Z,45.88
2018-07-06T04:48:25.398Z,45.69
2018-07-06T04:51:04.417Z,45.53
2018-07-06T04:53:43.186Z,44.93
2018-07-06T04:56:22.068Z,44.10
2018-07-06T04:59:01.049Z,44.89
2018-07-06T05:01:40.066Z,45.27
2018-07-06T05:04:18.882Z,44.11
2018-07-06T05:06:57.891Z,43.78
2018-07-06T05:09:36.566Z,43.43
2018-07-06T05:12:15.762Z,43.71
2018-07-06T05:14:54.416Z,42.76
2018-07-06T05:17:33.465Z,43.63
2018-07-06T05:20:12.309Z,43.57
2018-07-06T05:22:51.385Z,43.96
2018-07-06T05:25:30.201Z,44.01
2018-07-06T05:28:09.029Z,44.17
2018-07-06T05:30:50.164Z,44.40
2018-07-06T05:33:29.132Z,44.45
2018-07-06T05:36:08.095Z,44.70
2018-07-06T05:38:46.917Z,44.53
2018-07-06T05:41:25.842Z,44.45
2018-07-06T05:44:04.753Z,44.21
2018-07-06T05:46:43.663Z,44.14
2018-07-06T05:49:22.365Z,44.37
2018-07-06T05:52:01.186Z,44.68
2018-07-06T05:54:40.001Z,44.51
2018-07-06T05:57:18.915Z,44.36
2018-07-06T05:59:57.782Z,44.41
2018-07-06T06:02:36.877Z,44.61
2018-07-06T06:05:15.871Z,44.60
2018-07-06T06:07:42.310Z,44.85
2018-07-06T06:10:09.993Z,45.02
2018-07-06T06:12:37.668Z,44.13
2018-07-06T06:15:05.410Z,44.70
2018-07-06T06:17:33.146Z,44.90
2018-07-06T06:20:00.835Z,45.10
2018-07-06T06:22:28.555Z,44.87
2018-07-06T06:24:56.263Z,44.39
2018-07-06T06:27:25.054Z,44.59
2018-07-06T06:29:52.777Z,44.86
2018-07-06T06:32:20.493Z,45.27
2018-07-06T06:34:48.259Z,44.86
2018-07-06T06:37:16.054Z,45.38
2018-07-06T06:39:43.853Z,45.26
2018-07-06T06:42:11.531Z,45.88
2018-07-06T06:44:39.415Z,45.55
2018-07-06T06:47:07.282Z,45.62
2018-07-06T06:49:35.044Z,44.96
2018-07-06T06:52:02.849Z,45.32
2018-07-06T06:54:30.637Z,45.22
2018-07-06T06:56:58.639Z,45.56
2018-07-06T06:59:26.426Z,45.59
2018-07-06T07:01:54.129Z,45.49
2018-07-06T07:04:21.926Z,45.75
2018-07-06T07:06:49.713Z,45.02
2018-07-06T07:09:17.484Z,45.90
2018-07-06T07:11:45.209Z,45.88
2018-07-06T07:14:13.064Z,46.12
2018-07-06T07:16:40.745Z,46.09
2018-07-06T07:19:08.502Z,45.58
2018-07-06T07:21:36.347Z,45.41
2018-07-06T07:24:04.098Z,45.25
2018-07-06T07:26:31.846Z,45.35
2018-07-06T07:28:59.728Z,44.93
2018-07-06T07:31:27.506Z,45.04
2018-07-06T07:33:55.562Z,44.95
2018-07-06T07:36:23.495Z,45.26
2018-07-06T07:38:51.387Z,45.43
2018-07-06T07:41:19.242Z,45.63
2018-07-06T07:43:47.209Z,45.34
2018-07-06T07:46:15.078Z,45.42
2018-07-06T07:48:42.766Z,45.17
2018-07-06T07:51:53.610Z,45.56
2018-07-06T07:54:26.757Z,45.10
2018-07-06T07:56:55.893Z,45.02
2018-07-06T07:59:23.929Z,44.97
2018-07-06T08:01:51.725Z,45.27
2018-07-06T08:04:19.630Z,45.37
2018-07-06T08:06:47.392Z,45.24
2018-07-06T08:09:15.407Z,45.40
2018-07-06T08:11:43.303Z,45.62
2018-07-06T08:14:11.046Z,44.81
2018-07-06T08:16:38.765Z,44.93
2018-07-06T08:19:07.003Z,44.87
2018-07-06T08:21:35.019Z,44.75
2018-07-06T08:24:02.701Z,44.61
2018-07-06T08:26:30.349Z,44.74
2018-07-06T08:28:58.199Z,45.44
2018-07-06T08:31:25.904Z,45.44
2018-07-06T08:34:04.823Z,45.13
2018-07-06T08:38:40.142Z,44.98
2018-07-06T08:41:07.814Z,44.77
2018-07-06T08:43:35.489Z,44.74
2018-07-06T08:46:03.207Z,44.86
2018-07-06T08:48:30.921Z,44.69
2018-07-06T08:50:58.633Z,44.32
2018-07-06T08:53:26.330Z,44.73
2018-07-06T08:55:54.007Z,44.73
2018-07-06T08:58:21.767Z,44.30
2018-07-06T09:00:49.509Z,44.09
2018-07-06T09:03:17.171Z,44.60
2018-07-06T09:05:44.865Z,44.57
2018-07-06T09:08:12.586Z,44.62
2018-07-06T09:10:40.277Z,44.73
2018-07-06T09:13:08.046Z,44.57
2018-07-06T09:15:35.726Z,44.44
2018-07-06T09:18:03.540Z,44.88
2018-07-06T09:20:31.226Z,44.34
2018-07-06T09:22:58.977Z,44.29
2018-07-06T09:25:26.737Z,44.38
2018-07-06T09:27:54.512Z,44.07
2018-07-06T09:30:22.085Z,43.97
2018-07-06T09:32:49.772Z,43.69
2018-07-06T09:35:17.459Z,43.72
2018-07-06T09:37:45.153Z,44.25
2018-07-06T09:40:12.849Z,44.09
2018-07-06T09:42:40.534Z,43.75
2018-07-06T09:45:08.325Z,43.67
2018-07-06T09:47:36.027Z,44.08
2018-07-06T09:50:03.818Z,44.07
2018-07-06T09:52:31.536Z,43.92
2018-07-06T09:54:59.417Z,43.75
2018-07-06T09:57:27.145Z,43.19
2018-07-06T09:59:54.838Z,43.30
2018-07-06T10:02:22.529Z,43.29
2018-07-06T10:04:50.247Z,43.67
2018-07-06T10:07:17.956Z,44.60
2018-07-06T10:09:45.704Z,43.57
2018-07-06T10:12:13.386Z,43.02
2018-07-06T10:14:41.125Z,43.40
2018-07-06T10:17:08.849Z,43.39
2018-07-06T10:19:36.604Z,43.58
2018-07-06T10:22:04.967Z,43.60
2018-07-06T10:24:32.765Z,43.43
2018-07-06T10:27:00.450Z,43.37
2018-07-06T10:29:37.875Z,43.43
2018-07-06T10:32:17.302Z,43.29
2018-07-06T10:34:45.072Z,43.66
2018-07-06T10:37:12.809Z,43.50
2018-07-06T10:39:40.559Z,43.49
2018-07-06T10:42:08.799Z,43.49
2018-07-06T10:44:36.569Z,44.04
2018-07-06T10:47:04.369Z,45.41
2018-07-06T10:49:32.051Z,45.44
2018-07-06T10:51:59.767Z,46.02
2018-07-06T10:54:27.483Z,46.30
2018-07-06T10:56:55.203Z,46.42
2018-07-06T10:59:22.875Z,46.42
2018-07-06T11:01:50.669Z,46.48
2018-07-06T11:04:18.383Z,47.13
2018-07-06T11:06:46.093Z,46.81
2018-07-06T11:09:13.837Z,46.75
2018-07-06T11:11:41.648Z,47.01
2018-07-06T11:14:09.273Z,46.83
2018-07-06T11:16:36.965Z,46.68
2018-07-06T11:19:04.689Z,46.81
2018-07-06T11:21:32.352Z,46.90
2018-07-06T11:24:00.012Z,46.95
2018-07-06T11:26:27.716Z,47.10
2018-07-06T11:28:55.405Z,46.62
2018-07-06T11:31:23.084Z,46.70
2018-07-06T11:33:50.794Z,46.87
2018-07-06T11:36:18.506Z,47.15
2018-07-06T11:38:46.247Z,46.72
2018-07-06T11:41:13.968Z,46.73
2018-07-06T11:43:41.637Z,47.17
2018-07-06T11:46:09.394Z,46.79
2018-07-06T11:48:37.123Z,47.26
2018-07-06T11:51:04.844Z,47.23
2018-07-06T11:53:32.526Z,47.52
2018-07-06T11:56:00.252Z,47.55
2018-07-06T11:58:27.955Z,47.76
2018-07-06T12:00:55.673Z,47.85
2018-07-06T12:03:23.372Z,48.13
2018-07-06T12:05:51.094Z,47.43
2018-07-06T12:08:18.946Z,47.76
2018-07-06T12:10:46.677Z,47.92
2018-07-06T12:13:14.396Z,47.56
2018-07-06T12:15:42.121Z,47.68
2018-07-06T12:18:09.815Z,47.93
2018-07-06T12:20:37.495Z,47.86
2018-07-06T12:23:05.270Z,47.93
2018-07-06T12:25:32.951Z,47.64
2018-07-06T12:28:00.673Z,47.83
2018-07-06T12:30:28.341Z,47.99
2018-07-06T12:32:56.006Z,48.17
2018-07-06T12:35:23.670Z,47.84
2018-07-06T12:37:51.413Z,48.13
2018-07-06T12:40:19.104Z,48.08
2018-07-06T12:42:46.789Z,47.89
2018-07-06T12:45:14.483Z,47.67
2018-07-06T12:47:42.165Z,48.29
2018-07-06T12:50:09.822Z,47.90
2018-07-06T12:52:37.595Z,47.62
2018-07-06T12:55:05.393Z,47.88
2018-07-06T12:57:33.141Z,47.55
2018-07-06T13:00:01.107Z,47.97
2018-07-06T13:02:28.774Z,47.55
2018-07-06T13:04:56.461Z,47.30
2018-07-06T13:07:24.144Z,47.70
2018-07-06T13:09:51.854Z,47.48
2018-07-06T13:12:19.609Z,47.47
2018-07-06T13:14:47.291Z,47.46
2018-07-06T13:17:14.974Z,47.18
2018-07-06T13:19:42.774Z,47.36
2018-07-06T13:22:10.466Z,47.29
2018-07-06T13:24:38.131Z,47.26
2018-07-06T13:27:05.906Z,47.21
2018-07-06T13:29:33.670Z,47.03
2018-07-06T13:32:01.405Z,47.04
2018-07-06T13:34:29.078Z,47.22
2018-07-06T13:36:56.816Z,46.49
2018-07-06T13:39:24.538Z,46.72
2018-07-06T13:41:52.484Z,46.92
2018-07-06T13:44:20.171Z,46.69
2018-07-06T13:46:47.928Z,46.70
2018-07-06T13:49:16.187Z,46.79
2018-07-06T13:51:43.891Z,46.49
2018-07-06T13:54:11.617Z,46.62
2018-07-06T13:56:39.320Z,46.65
2018-07-06T13:59:07.055Z,46.87
2018-07-06T14:01:35.006Z,46.76
2018-07-06T14:04:02.694Z,46.82
2018-07-06T14:06:30.390Z,46.79
2018-07-06T14:08:58.082Z,46.82
2018-07-06T14:11:25.755Z,46.91
2018-07-06T14:13:53.770Z,46.88
2018-07-06T14:16:21.498Z,46.52
2018-07-06T14:18:49.190Z,46.89
2018-07-06T14:21:16.894Z,46.62
2018-07-06T14:23:44.563Z,47.06
2018-07-06T14:26:12.454Z,46.45
2018-07-06T14:28:40.144Z,46.47
2018-07-06T14:31:08.155Z,46.39
2018-07-06T14:33:35.890Z,46.32
2018-07-06T14:36:03.618Z,46.24
2018-07-06T14:38:31.354Z,46.66
2018-07-06T14:40:59.062Z,46.09
2018-07-06T14:43:26.738Z,46.23
2018-07-06T14:45:54.429Z,46.00
2018-07-06T14:48:22.155Z,46.15
2018-07-06T14:50:49.868Z,46.09
2018-07-06T14:53:17.566Z,46.12
2018-07-06T14:55:45.318Z,45.70
2018-07-06T14:58:13.031Z,46.14
2018-07-06T15:00:40.704Z,46.17
2018-07-06T15:03:08.427Z,46.12
2018-07-06T15:05:36.133Z,46.44
2018-07-06T15:08:03.846Z,46.87
2018-07-06T15:10:31.523Z,46.98
2018-07-06T15:12:59.261Z,47.29
2018-07-06T15:15:26.974Z,46.76
2018-07-06T15:17:54.671Z,47.20
2018-07-06T15:20:22.390Z,47.17
2018-07-06T15:22:50.095Z,47.29
2018-07-06T15:25:17.794Z,47.16
2018-07-06T15:27:45.485Z,47.23
2018-07-06T15:30:13.273Z,47.12
2018-07-06T15:32:40.939Z,47.32
2018-07-06T15:35:08.646Z,47.43
2018-07-06T15:37:36.382Z,47.09
2018-07-06T15:40:04.238Z,47.07
2018-07-06T15:42:31.973Z,47.38
2018-07-06T15:44:59.706Z,47.42
2018-07-06T15:47:27.514Z,47.62
2018-07-06T15:49:55.329Z,47.56
2018-07-06T15:52:23.129Z,47.75
2018-07-06T15:54:50.813Z,48.01
2018-07-06T15:57:18.557Z,47.66
2018-07-06T15:59:46.286Z,47.88
2018-07-06T16:02:14.010Z,47.81
2018-07-06T16:04:41.702Z,47.52
2018-07-06T16:07:09.401Z,47.35
2018-07-06T16:09:37.092Z,47.28
2018-07-06T16:12:04.758Z,47.02
2018-07-06T16:14:32.434Z,46.97
2018-07-06T16:17:00.131Z,46.93
2018-07-06T16:19:27.842Z,46.65
2018-07-06T16:21:55.561Z,47.25
2018-07-06T16:24:23.269Z,46.90
2018-07-06T16:26:51.010Z,46.65
2018-07-06T16:29:18.721Z,46.75
2018-07-06T16:31:46.466Z,46.59
2018-07-06T16:34:14.190Z,46.69
2018-07-06T16:36:41.916Z,46.48
2018-07-06T16:39:09.694Z,46.50
2018-07-06T16:41:37.449Z,46.63
2018-07-06T16:44:05.252Z,46.63
2018-07-06T16:46:32.901Z,46.92
2018-07-06T16:49:00.666Z,46.91
2018-07-06T16:51:28.385Z,46.79
2018-07-06T16:53:56.128Z,46.79
2018-07-06T16:56:23.862Z,46.53
2018-07-06T16:58:51.605Z,46.90
2018-07-06T17:01:19.308Z,47.15
2018-07-06T17:03:47.026Z,47.06
2018-07-06T17:06:14.787Z,47.08
2018-07-06T17:08:42.480Z,47.38
2018-07-06T17:11:10.194Z,47.64
2018-07-06T17:13:37.952Z,47.45
2018-07-06T17:16:05.679Z,47.52
2018-07-06T17:18:33.372Z,48.09
2018-07-06T17:21:01.153Z,47.75
2018-07-06T17:23:28.851Z,47.87
2018-07-06T17:25:56.513Z,47.74
2018-07-06T17:28:24.246Z,47.93
2018-07-06T17:30:51.954Z,47.96
2018-07-06T17:33:19.626Z,47.70
2018-07-06T17:35:47.379Z,47.77
2018-07-06T17:38:15.066Z,47.73
2018-07-06T17:40:42.763Z,47.79
2018-07-06T17:43:10.576Z,47.43
2018-07-06T17:45:38.291Z,47.86
2018-07-06T17:48:06.890Z,47.87
2018-07-06T17:50:34.685Z,47.95
2018-07-06T17:53:02.450Z,47.57
2018-07-06T17:55:30.212Z,47.54
2018-07-06T17:57:58.070Z,47.45
2018-07-06T18:00:25.792Z,47.41
2018-07-06T18:02:53.529Z,47.31
2018-07-06T18:05:21.199Z,47.19
2018-07-06T18:07:48.938Z,47.18
2018-07-06T18:10:16.664Z,47.09
2018-07-06T18:12:44.402Z,47.25
2018-07-06T18:15:13.666Z,47.22
2018-07-06T18:17:41.402Z,47.29
2018-07-06T18:20:09.292Z,47.47
2018-07-06T18:22:37.209Z,47.41
2018-07-06T18:25:04.973Z,47.57
2018-07-06T18:27:32.681Z,47.82
2018-07-06T18:30:00.398Z,47.47
2018-07-06T18:32:28.447Z,47.68
2018-07-06T18:34:56.307Z,47.62
2018-07-06T18:37:24.072Z,47.61
2018-07-06T18:39:51.765Z,47.62
2018-07-06T18:42:19.466Z,47.66
2018-07-06T18:44:47.172Z,48.00
2018-07-06T18:47:14.915Z,48.14
2018-07-06T18:49:42.793Z,48.26
2018-07-06T18:52:10.494Z,47.96
2018-07-06T18:54:38.237Z,48.02
2018-07-06T18:57:05.998Z,48.00
2018-07-06T18:59:33.693Z,47.86
2018-07-06T19:02:01.387Z,47.77
2018-07-06T19:04:29.085Z,47.82
2018-07-06T19:06:56.866Z,47.92
2018-07-06T19:09:24.523Z,47.94
2018-07-06T19:11:52.243Z,47.51
2018-07-06T19:14:19.940Z,48.11
2018-07-06T19:16:47.676Z,47.92
2018-07-06T19:19:15.349Z,48.12
2018-07-06T19:21:43.085Z,48.75
2018-07-06T19:24:10.765Z,48.80
2018-07-06T19:26:38.435Z,48.57
2018-07-06T19:29:06.166Z,49.21
2018-07-06T19:31:33.962Z,49.65
2018-07-06T19:34:01.633Z,50.36
2018-07-06T19:36:29.298Z,50.47
2018-07-06T19:38:56.996Z,51.16
2018-07-06T19:41:24.669Z,50.71
2018-07-06T19:43:52.346Z,50.32
2018-07-06T19:46:20.014Z,51.12
2018-07-06T19:48:47.678Z,51.16
2018-07-06T19:51:15.353Z,48.38
2018-07-06T19:53:43.037Z,48.97
2018-07-06T19:56:10.755Z,45.31
2018-07-06T19:58:38.449Z,43.81
2018-07-06T20:01:06.220Z,43.03
2018-07-06T20:03:33.911Z,42.65
2018-07-06T20:06:01.610Z,42.93
2018-07-06T20:08:29.285Z,43.52
2018-07-06T20:10:56.993Z,42.55
2018-07-06T20:13:24.744Z,42.53
2018-07-06T20:15:52.385Z,41.69
2018-07-06T20:18:20.065Z,41.25
2018-07-06T20:20:47.757Z,41.99
2018-07-06T20:23:15.441Z,40.55
2018-07-06T20:25:43.306Z,41.73
2018-07-06T20:28:10.986Z,41.01
2018-07-06T20:30:38.717Z,41.59
2018-07-06T20:33:06.400Z,41.14
2018-07-06T20:35:34.069Z,41.41
2018-07-06T20:38:01.777Z,40.79
2018-07-06T20:40:29.645Z,41.24
2018-07-06T20:42:57.309Z,40.41
2018-07-06T20:45:24.976Z,40.52
2018-07-06T20:47:52.693Z,40.47
2018-07-06T20:50:20.381Z,41.13
2018-07-06T20:52:48.056Z,40.10
2018-07-06T20:55:15.754Z,40.10
2018-07-06T20:57:43.460Z,41.02
2018-07-06T21:00:11.143Z,40.52
2018-07-06T21:02:38.859Z,40.67
2018-07-06T21:05:06.570Z,40.62
2018-07-06T21:07:34.237Z,41.03
2018-07-06T21:10:01.910Z,40.33
2018-07-06T21:12:29.596Z,40.67
2018-07-06T21:14:57.287Z,40.68
2018-07-06T21:17:24.945Z,40.77
2018-07-06T21:19:52.634Z,40.81
2018-07-06T21:22:20.417Z,40.69
2018-07-06T21:24:48.094Z,41.10
2018-07-06T21:27:15.818Z,40.90
2018-07-06T21:29:43.506Z,41.23
2018-07-06T21:32:11.228Z,41.44
2018-07-06T21:34:38.907Z,41.36
2018-07-06T21:37:06.595Z,41.01
2018-07-06T21:39:34.293Z,41.30
2018-07-06T21:42:02.002Z,41.39
2018-07-06T21:44:29.665Z,41.48
2018-07-06T21:46:57.376Z,41.52
2018-07-06T21:49:25.020Z,41.90
2018-07-06T21:51:52.697Z,41.89
2018-07-06T21:54:20.364Z,41.54
2018-07-06T21:56:48.009Z,41.49
2018-07-06T21:59:15.689Z,41.17
2018-07-06T22:01:43.401Z,41.48
2018-07-06T22:04:11.080Z,41.54
2018-07-06T22:06:38.754Z,41.65
2018-07-06T22:09:06.540Z,41.69
2018-07-06T22:11:34.260Z,41.77
2018-07-06T22:14:01.932Z,41.37
2018-07-06T22:16:29.596Z,42.02
2018-07-06T22:18:57.277Z,42.21
2018-07-06T22:21:24.955Z,42.33
2018-07-06T22:23:52.640Z,42.16
2018-07-06T22:26:20.305Z,42.46
2018-07-06T22:28:47.964Z,42.58
2018-07-06T22:31:15.637Z,42.76
2018-07-06T22:33:43.324Z,42.71
2018-07-06T22:36:11.010Z,42.45
2018-07-06T22:38:38.706Z,42.36
2018-07-06T22:41:06.396Z,42.36
2018-07-06T22:43:34.067Z,41.87
2018-07-06T22:46:01.749Z,42.25
2018-07-06T22:48:29.427Z,41.89
2018-07-06T22:50:57.121Z,41.82
2018-07-06T22:53:24.807Z,42.05
2018-07-06T22:55:52.478Z,41.99
2018-07-06T22:58:20.152Z,42.19
2018-07-06T23:00:47.831Z,41.73
2018-07-06T23:03:15.482Z,42.19
2018-07-06T23:05:43.155Z,42.08
2018-07-06T23:08:10.808Z,42.37
2018-07-06T23:10:38.481Z,41.64
2018-07-06T23:13:06.169Z,41.85
2018-07-06T23:15:33.850Z,42.16
2018-07-06T23:18:01.535Z,41.87
2018-07-06T23:20:29.218Z,42.27
2018-07-06T23:23:12.422Z,42.15
2018-07-06T23:25:41.317Z,42.50
2018-07-06T23:28:09.138Z,42.45
2018-07-06T23:30:36.837Z,42.57
2018-07-06T23:33:05.483Z,42.52
2018-07-06T23:35:33.298Z,42.37
2018-07-06T23:38:01.006Z,42.55
2018-07-06T23:40:28.730Z,42.88
2018-07-06T23:42:56.466Z,42.53
2018-07-06T23:45:24.198Z,42.17
2018-07-06T23:47:52.032Z,42.46
2018-07-06T23:50:20.070Z,42.75
2018-07-06T23:52:47.811Z,43.03
2018-07-06T23:55:15.805Z,42.88
2018-07-06T23:57:43.891Z,43.18
